sensor_id;sensor_type;location;lat;lon;timestamp;P1;durP1;ratioP1;P2;durP2;ratioP2
48578;SDS011;34357;51.948;6.132;2022-10-16T00:01:26;8.27;;;4.35;;
48578;SDS011;34357;51.948;6.132;2022-10-16T00:03:54;10.80;;;3.70;;
48578;SDS011;34357;51.948;6.132;2022-10-16T00:06:21;7.53;;;3.65;;
48578;SDS011;34357;51.948;6.132;2022-10-16T00:08:47;9.45;;;3.85;;
48578;SDS011;34357;51.948;6.132;2022-10-16T00:11:15;11.00;;;3.67;;
48578;SDS011;34357;51.948;6.132;2022-10-16T00:13:44;9.63;;;4.32;;
48578;SDS011;34357;51.948;6.132;2022-10-16T00:16:11;9.57;;;3.88;;
48578;SDS011;34357;51.948;6.132;2022-10-16T00:18:38;11.20;;;3.83;;
48578;SDS011;34357;51.948;6.132;2022-10-16T00:21:05;9.90;;;4.15;;
48578;SDS011;34357;51.948;6.132;2022-10-16T00:23:35;10.15;;;4.55;;
48578;SDS011;34357;51.948;6.132;2022-10-16T00:26:03;9.25;;;4.15;;
48578;SDS011;34357;51.948;6.132;2022-10-16T00:28:31;8.77;;;4.50;;
48578;SDS011;34357;51.948;6.132;2022-10-16T00:30:57;10.60;;;4.50;;
48578;SDS011;34357;51.948;6.132;2022-10-16T00:33:23;11.45;;;5.22;;
48578;SDS011;34357;51.948;6.132;2022-10-16T00:35:49;11.45;;;4.68;;
48578;SDS011;34357;51.948;6.132;2022-10-16T00:38:15;10.40;;;5.47;;
48578;SDS011;34357;51.948;6.132;2022-10-16T00:40:41;17.60;;;5.47;;
48578;SDS011;34357;51.948;6.132;2022-10-16T00:43:14;10.38;;;4.80;;
48578;SDS011;34357;51.948;6.132;2022-10-16T00:46:00;11.40;;;5.53;;
48578;SDS011;34357;51.948;6.132;2022-10-16T00:48:27;11.07;;;5.50;;
48578;SDS011;34357;51.948;6.132;2022-10-16T00:50:54;11.73;;;5.45;;
48578;SDS011;34357;51.948;6.132;2022-10-16T00:53:20;12.88;;;6.30;;
48578;SDS011;34357;51.948;6.132;2022-10-16T00:55:47;10.32;;;5.72;;
48578;SDS011;34357;51.948;6.132;2022-10-16T00:58:13;14.48;;;5.90;;
48578;SDS011;34357;51.948;6.132;2022-10-16T01:00:38;15.50;;;6.03;;
48578;SDS011;34357;51.948;6.132;2022-10-16T01:03:21;11.60;;;6.43;;
48578;SDS011;34357;51.948;6.132;2022-10-16T01:05:59;10.15;;;6.15;;
48578;SDS011;34357;51.948;6.132;2022-10-16T01:08:41;14.35;;;6.80;;
48578;SDS011;34357;51.948;6.132;2022-10-16T01:11:21;14.02;;;6.15;;
48578;SDS011;34357;51.948;6.132;2022-10-16T01:13:55;8.80;;;6.10;;
48578;SDS011;34357;51.948;6.132;2022-10-16T01:16:31;9.05;;;6.32;;
48578;SDS011;34357;51.948;6.132;2022-10-16T01:19:52;11.20;;;6.00;;
48578;SDS011;34357;51.948;6.132;2022-10-16T01:22:09;7.00;;;5.63;;
48578;SDS011;34357;51.948;6.132;2022-10-16T01:24:39;10.85;;;6.45;;
48578;SDS011;34357;51.948;6.132;2022-10-16T01:27:21;14.70;;;6.22;;
48578;SDS011;34357;51.948;6.132;2022-10-16T01:30:01;7.95;;;5.75;;
48578;SDS011;34357;51.948;6.132;2022-10-16T01:34:54;10.63;;;5.43;;
48578;SDS011;34357;51.948;6.132;2022-10-16T01:37:37;7.88;;;5.22;;
48578;SDS011;34357;51.948;6.132;2022-10-16T01:40:09;7.95;;;5.15;;
48578;SDS011;34357;51.948;6.132;2022-10-16T01:42:41;9.53;;;5.47;;
48578;SDS011;34357;51.948;6.132;2022-10-16T01:45:11;10.40;;;5.70;;
48578;SDS011;34357;51.948;6.132;2022-10-16T01:47:39;9.82;;;5.35;;
48578;SDS011;34357;51.948;6.132;2022-10-16T01:50:06;9.20;;;5.80;;
48578;SDS011;34357;51.948;6.132;2022-10-16T01:52:34;13.48;;;5.53;;
48578;SDS011;34357;51.948;6.132;2022-10-16T01:55:03;8.93;;;5.47;;
48578;SDS011;34357;51.948;6.132;2022-10-16T01:57:31;12.57;;;5.50;;
48578;SDS011;34357;51.948;6.132;2022-10-16T02:00:05;9.90;;;5.28;;
48578;SDS011;34357;51.948;6.132;2022-10-16T02:02:37;10.27;;;5.00;;
48578;SDS011;34357;51.948;6.132;2022-10-16T02:07:45;11.05;;;5.80;;
48578;SDS011;34357;51.948;6.132;2022-10-16T02:10:11;16.10;;;5.35;;
48578;SDS011;34357;51.948;6.132;2022-10-16T02:12:37;11.07;;;5.20;;
48578;SDS011;34357;51.948;6.132;2022-10-16T02:15:07;8.40;;;4.80;;
48578;SDS011;34357;51.948;6.132;2022-10-16T02:17:33;8.73;;;4.53;;
48578;SDS011;34357;51.948;6.132;2022-10-16T02:19:59;8.13;;;5.40;;
48578;SDS011;34357;51.948;6.132;2022-10-16T02:22:27;9.57;;;5.22;;
48578;SDS011;34357;51.948;6.132;2022-10-16T02:25:05;11.07;;;5.80;;
48578;SDS011;34357;51.948;6.132;2022-10-16T02:27:47;7.22;;;4.97;;
48578;SDS011;34357;51.948;6.132;2022-10-16T02:32:51;6.38;;;4.55;;
48578;SDS011;34357;51.948;6.132;2022-10-16T02:35:19;8.60;;;4.45;;
48578;SDS011;34357;51.948;6.132;2022-10-16T02:37:48;8.57;;;4.53;;
48578;SDS011;34357;51.948;6.132;2022-10-16T02:40:15;8.73;;;4.13;;
48578;SDS011;34357;51.948;6.132;2022-10-16T02:42:42;8.63;;;5.00;;
48578;SDS011;34357;51.948;6.132;2022-10-16T02:45:09;10.60;;;4.30;;
48578;SDS011;34357;51.948;6.132;2022-10-16T02:47:35;11.13;;;4.65;;
48578;SDS011;34357;51.948;6.132;2022-10-16T02:50:01;7.85;;;4.00;;
48578;SDS011;34357;51.948;6.132;2022-10-16T02:52:27;7.82;;;4.63;;
48578;SDS011;34357;51.948;6.132;2022-10-16T02:54:52;9.68;;;4.68;;
48578;SDS011;34357;51.948;6.132;2022-10-16T02:57:18;7.07;;;4.45;;
48578;SDS011;34357;51.948;6.132;2022-10-16T02:59:44;6.97;;;4.60;;
48578;SDS011;34357;51.948;6.132;2022-10-16T03:02:10;7.65;;;3.85;;
48578;SDS011;34357;51.948;6.132;2022-10-16T03:04:36;6.03;;;4.07;;
48578;SDS011;34357;51.948;6.132;2022-10-16T03:07:02;10.13;;;3.83;;
48578;SDS011;34357;51.948;6.132;2022-10-16T03:09:28;8.85;;;4.15;;
48578;SDS011;34357;51.948;6.132;2022-10-16T03:11:54;10.30;;;3.97;;
48578;SDS011;34357;51.948;6.132;2022-10-16T03:14:19;5.88;;;4.05;;
48578;SDS011;34357;51.948;6.132;2022-10-16T03:16:45;4.82;;;3.70;;
48578;SDS011;34357;51.948;6.132;2022-10-16T03:19:11;4.68;;;4.10;;
48578;SDS011;34357;51.948;6.132;2022-10-16T03:21:37;5.53;;;4.05;;
48578;SDS011;34357;51.948;6.132;2022-10-16T03:24:02;6.57;;;4.32;;
48578;SDS011;34357;51.948;6.132;2022-10-16T03:26:28;8.85;;;4.63;;
48578;SDS011;34357;51.948;6.132;2022-10-16T03:28:54;7.15;;;4.60;;
48578;SDS011;34357;51.948;6.132;2022-10-16T03:31:20;8.15;;;4.90;;
48578;SDS011;34357;51.948;6.132;2022-10-16T03:33:45;8.85;;;5.40;;
48578;SDS011;34357;51.948;6.132;2022-10-16T03:36:11;12.15;;;6.90;;
48578;SDS011;34357;51.948;6.132;2022-10-16T03:38:36;8.57;;;7.47;;
48578;SDS011;34357;51.948;6.132;2022-10-16T03:41:02;10.52;;;8.98;;
48578;SDS011;34357;51.948;6.132;2022-10-16T03:43:29;10.32;;;9.30;;
48578;SDS011;34357;51.948;6.132;2022-10-16T03:45:54;13.25;;;8.90;;
48578;SDS011;34357;51.948;6.132;2022-10-16T03:48:20;10.52;;;9.23;;
48578;SDS011;34357;51.948;6.132;2022-10-16T03:50:45;10.65;;;9.27;;
48578;SDS011;34357;51.948;6.132;2022-10-16T03:53:13;13.13;;;10.77;;
48578;SDS011;34357;51.948;6.132;2022-10-16T03:55:41;11.65;;;9.82;;
48578;SDS011;34357;51.948;6.132;2022-10-16T03:58:08;12.45;;;10.43;;
48578;SDS011;34357;51.948;6.132;2022-10-16T04:00:34;10.70;;;9.55;;
48578;SDS011;34357;51.948;6.132;2022-10-16T04:02:59;11.13;;;8.88;;
48578;SDS011;34357;51.948;6.132;2022-10-16T04:05:26;8.30;;;7.50;;
48578;SDS011;34357;51.948;6.132;2022-10-16T04:07:51;9.15;;;8.13;;
48578;SDS011;34357;51.948;6.132;2022-10-16T04:10:17;9.98;;;7.00;;
48578;SDS011;34357;51.948;6.132;2022-10-16T04:12:44;9.15;;;7.38;;
48578;SDS011;34357;51.948;6.132;2022-10-16T04:15:09;10.20;;;6.63;;
48578;SDS011;34357;51.948;6.132;2022-10-16T04:17:35;11.75;;;5.88;;
48578;SDS011;34357;51.948;6.132;2022-10-16T04:20:01;7.93;;;6.50;;
48578;SDS011;34357;51.948;6.132;2022-10-16T04:22:27;13.13;;;7.00;;
48578;SDS011;34357;51.948;6.132;2022-10-16T04:24:52;9.13;;;7.05;;
48578;SDS011;34357;51.948;6.132;2022-10-16T04:27:18;11.90;;;7.60;;
48578;SDS011;34357;51.948;6.132;2022-10-16T04:29:43;8.43;;;7.18;;
48578;SDS011;34357;51.948;6.132;2022-10-16T04:32:09;13.48;;;8.80;;
48578;SDS011;34357;51.948;6.132;2022-10-16T04:34:35;12.05;;;9.23;;
48578;SDS011;34357;51.948;6.132;2022-10-16T04:37:01;10.20;;;9.20;;
48578;SDS011;34357;51.948;6.132;2022-10-16T04:39:26;11.93;;;9.23;;
48578;SDS011;34357;51.948;6.132;2022-10-16T04:41:52;10.27;;;9.27;;
48578;SDS011;34357;51.948;6.132;2022-10-16T04:44:18;11.95;;;9.55;;
48578;SDS011;34357;51.948;6.132;2022-10-16T04:46:43;11.27;;;10.07;;
48578;SDS011;34357;51.948;6.132;2022-10-16T04:49:09;11.57;;;9.75;;
48578;SDS011;34357;51.948;6.132;2022-10-16T04:51:35;11.75;;;9.43;;
48578;SDS011;34357;51.948;6.132;2022-10-16T04:54:01;11.20;;;9.25;;
48578;SDS011;34357;51.948;6.132;2022-10-16T04:56:27;8.05;;;7.15;;
48578;SDS011;34357;51.948;6.132;2022-10-16T04:58:52;6.43;;;5.82;;
48578;SDS011;34357;51.948;6.132;2022-10-16T05:01:18;6.32;;;5.50;;
48578;SDS011;34357;51.948;6.132;2022-10-16T05:03:44;12.05;;;5.43;;
48578;SDS011;34357;51.948;6.132;2022-10-16T05:06:09;11.02;;;5.53;;
48578;SDS011;34357;51.948;6.132;2022-10-16T05:08:35;7.30;;;5.25;;
48578;SDS011;34357;51.948;6.132;2022-10-16T05:11:01;6.45;;;5.00;;
48578;SDS011;34357;51.948;6.132;2022-10-16T05:13:27;9.32;;;5.28;;
48578;SDS011;34357;51.948;6.132;2022-10-16T05:15:52;7.80;;;5.45;;
48578;SDS011;34357;51.948;6.132;2022-10-16T05:18:18;9.10;;;5.57;;
48578;SDS011;34357;51.948;6.132;2022-10-16T05:20:44;10.18;;;6.22;;
48578;SDS011;34357;51.948;6.132;2022-10-16T05:23:10;7.18;;;5.32;;
48578;SDS011;34357;51.948;6.132;2022-10-16T05:25:37;9.13;;;5.22;;
48578;SDS011;34357;51.948;6.132;2022-10-16T05:28:02;7.80;;;5.38;;
48578;SDS011;34357;51.948;6.132;2022-10-16T05:30:29;6.22;;;4.78;;
48578;SDS011;34357;51.948;6.132;2022-10-16T05:32:54;6.72;;;4.82;;
48578;SDS011;34357;51.948;6.132;2022-10-16T05:35:20;7.80;;;5.43;;
48578;SDS011;34357;51.948;6.132;2022-10-16T05:37:46;11.80;;;5.93;;
48578;SDS011;34357;51.948;6.132;2022-10-16T05:40:13;7.13;;;4.93;;
48578;SDS011;34357;51.948;6.132;2022-10-16T05:42:40;8.90;;;5.65;;
48578;SDS011;34357;51.948;6.132;2022-10-16T05:45:06;11.43;;;5.80;;
48578;SDS011;34357;51.948;6.132;2022-10-16T05:47:34;9.70;;;5.03;;
48578;SDS011;34357;51.948;6.132;2022-10-16T05:50:00;8.40;;;4.63;;
48578;SDS011;34357;51.948;6.132;2022-10-16T05:52:26;9.63;;;4.30;;
48578;SDS011;34357;51.948;6.132;2022-10-16T05:54:52;5.30;;;4.50;;
48578;SDS011;34357;51.948;6.132;2022-10-16T05:57:18;6.60;;;3.92;;
48578;SDS011;34357;51.948;6.132;2022-10-16T05:59:43;6.18;;;4.00;;
48578;SDS011;34357;51.948;6.132;2022-10-16T06:02:12;6.43;;;4.20;;
48578;SDS011;34357;51.948;6.132;2022-10-16T06:04:39;7.07;;;4.65;;
48578;SDS011;34357;51.948;6.132;2022-10-16T06:07:04;7.47;;;4.80;;
48578;SDS011;34357;51.948;6.132;2022-10-16T06:09:30;8.05;;;5.10;;
48578;SDS011;34357;51.948;6.132;2022-10-16T06:11:56;7.88;;;4.75;;
48578;SDS011;34357;51.948;6.132;2022-10-16T06:14:22;8.52;;;5.47;;
48578;SDS011;34357;51.948;6.132;2022-10-16T06:16:47;8.88;;;5.28;;
48578;SDS011;34357;51.948;6.132;2022-10-16T06:19:13;10.18;;;5.93;;
48578;SDS011;34357;51.948;6.132;2022-10-16T06:21:39;9.40;;;5.50;;
48578;SDS011;34357;51.948;6.132;2022-10-16T06:24:04;12.63;;;6.40;;
48578;SDS011;34357;51.948;6.132;2022-10-16T06:26:31;11.43;;;6.60;;
48578;SDS011;34357;51.948;6.132;2022-10-16T06:28:57;10.52;;;6.03;;
48578;SDS011;34357;51.948;6.132;2022-10-16T06:31:24;11.18;;;6.07;;
48578;SDS011;34357;51.948;6.132;2022-10-16T06:33:55;8.75;;;6.20;;
48578;SDS011;34357;51.948;6.132;2022-10-16T06:36:21;11.77;;;7.03;;
48578;SDS011;34357;51.948;6.132;2022-10-16T06:38:47;14.82;;;6.75;;
48578;SDS011;34357;51.948;6.132;2022-10-16T06:41:15;6.93;;;4.63;;
48578;SDS011;34357;51.948;6.132;2022-10-16T06:43:43;6.10;;;3.88;;
48578;SDS011;34357;51.948;6.132;2022-10-16T06:46:13;4.05;;;3.22;;
48578;SDS011;34357;51.948;6.132;2022-10-16T06:48:40;6.50;;;2.90;;
48578;SDS011;34357;51.948;6.132;2022-10-16T06:51:09;7.22;;;3.03;;
48578;SDS011;34357;51.948;6.132;2022-10-16T06:53:42;6.38;;;3.50;;
48578;SDS011;34357;51.948;6.132;2022-10-16T06:56:15;6.50;;;3.45;;
48578;SDS011;34357;51.948;6.132;2022-10-16T06:58:43;7.10;;;3.38;;
48578;SDS011;34357;51.948;6.132;2022-10-16T07:01:09;8.18;;;3.22;;
48578;SDS011;34357;51.948;6.132;2022-10-16T07:03:36;6.10;;;2.78;;
48578;SDS011;34357;51.948;6.132;2022-10-16T07:06:03;8.55;;;3.55;;
48578;SDS011;34357;51.948;6.132;2022-10-16T07:08:32;7.03;;;3.42;;
48578;SDS011;34357;51.948;6.132;2022-10-16T07:11:02;5.47;;;2.70;;
48578;SDS011;34357;51.948;6.132;2022-10-16T07:13:33;4.25;;;2.90;;
48578;SDS011;34357;51.948;6.132;2022-10-16T07:18:39;4.63;;;3.00;;
48578;SDS011;34357;51.948;6.132;2022-10-16T07:21:08;8.55;;;2.58;;
48578;SDS011;34357;51.948;6.132;2022-10-16T07:23:36;5.65;;;2.90;;
48578;SDS011;34357;51.948;6.132;2022-10-16T07:26:02;5.45;;;2.70;;
48578;SDS011;34357;51.948;6.132;2022-10-16T07:28:28;7.43;;;2.40;;
48578;SDS011;34357;51.948;6.132;2022-10-16T07:30:55;4.60;;;2.53;;
48578;SDS011;34357;51.948;6.132;2022-10-16T07:33:21;4.78;;;2.50;;
48578;SDS011;34357;51.948;6.132;2022-10-16T07:35:47;4.25;;;2.53;;
48578;SDS011;34357;51.948;6.132;2022-10-16T07:38:17;6.72;;;2.75;;
48578;SDS011;34357;51.948;6.132;2022-10-16T07:40:43;6.10;;;2.25;;
48578;SDS011;34357;51.948;6.132;2022-10-16T07:43:09;4.72;;;2.25;;
48578;SDS011;34357;51.948;6.132;2022-10-16T07:45:35;5.22;;;2.63;;
48578;SDS011;34357;51.948;6.132;2022-10-16T07:48:01;6.47;;;3.00;;
48578;SDS011;34357;51.948;6.132;2022-10-16T07:50:27;5.60;;;3.25;;
48578;SDS011;34357;51.948;6.132;2022-10-16T07:52:52;6.25;;;3.15;;
48578;SDS011;34357;51.948;6.132;2022-10-16T07:55:18;5.28;;;3.25;;
48578;SDS011;34357;51.948;6.132;2022-10-16T07:57:44;6.22;;;3.30;;
48578;SDS011;34357;51.948;6.132;2022-10-16T08:00:09;6.22;;;3.45;;
48578;SDS011;34357;51.948;6.132;2022-10-16T08:02:39;13.00;;;2.83;;
48578;SDS011;34357;51.948;6.132;2022-10-16T08:05:05;6.45;;;3.00;;
48578;SDS011;34357;51.948;6.132;2022-10-16T08:07:32;5.45;;;2.60;;
48578;SDS011;34357;51.948;6.132;2022-10-16T08:09:57;2.80;;;2.30;;
48578;SDS011;34357;51.948;6.132;2022-10-16T08:12:25;6.03;;;2.13;;
48578;SDS011;34357;51.948;6.132;2022-10-16T08:14:51;9.40;;;2.53;;
48578;SDS011;34357;51.948;6.132;2022-10-16T08:17:16;7.25;;;2.95;;
48578;SDS011;34357;51.948;6.132;2022-10-16T08:19:45;6.05;;;2.33;;
48578;SDS011;34357;51.948;6.132;2022-10-16T08:22:12;4.22;;;2.42;;
48578;SDS011;34357;51.948;6.132;2022-10-16T08:24:39;3.08;;;2.28;;
48578;SDS011;34357;51.948;6.132;2022-10-16T08:27:05;5.20;;;2.22;;
48578;SDS011;34357;51.948;6.132;2022-10-16T08:29:31;8.75;;;2.00;;
48578;SDS011;34357;51.948;6.132;2022-10-16T08:31:57;7.90;;;2.20;;
48578;SDS011;34357;51.948;6.132;2022-10-16T08:34:23;8.05;;;2.28;;
48578;SDS011;34357;51.948;6.132;2022-10-16T08:36:49;7.57;;;1.90;;
48578;SDS011;34357;51.948;6.132;2022-10-16T08:39:17;5.75;;;1.67;;
48578;SDS011;34357;51.948;6.132;2022-10-16T08:47:35;5.97;;;2.25;;
48578;SDS011;34357;51.948;6.132;2022-10-16T08:50:17;8.07;;;1.98;;
48578;SDS011;34357;51.948;6.132;2022-10-16T08:52:49;7.35;;;2.25;;
48578;SDS011;34357;51.948;6.132;2022-10-16T08:55:29;4.18;;;2.47;;
48578;SDS011;34357;51.948;6.132;2022-10-16T08:58:09;5.30;;;1.85;;
48578;SDS011;34357;51.948;6.132;2022-10-16T09:00:43;4.07;;;1.90;;
48578;SDS011;34357;51.948;6.132;2022-10-16T09:06:29;3.42;;;1.70;;
48578;SDS011;34357;51.948;6.132;2022-10-16T09:09:19;8.18;;;2.03;;
48578;SDS011;34357;51.948;6.132;2022-10-16T09:14:54;3.08;;;1.55;;
48578;SDS011;34357;51.948;6.132;2022-10-16T09:17:46;6.38;;;1.70;;
48578;SDS011;34357;51.948;6.132;2022-10-16T09:25:45;5.00;;;1.50;;
48578;SDS011;34357;51.948;6.132;2022-10-16T09:28:14;3.85;;;1.50;;
48578;SDS011;34357;51.948;6.132;2022-10-16T09:30:41;6.70;;;1.75;;
48578;SDS011;34357;51.948;6.132;2022-10-16T09:33:07;8.40;;;1.90;;
48578;SDS011;34357;51.948;6.132;2022-10-16T09:35:43;8.13;;;1.85;;
48578;SDS011;34357;51.948;6.132;2022-10-16T09:38:23;7.55;;;2.10;;
48578;SDS011;34357;51.948;6.132;2022-10-16T09:40:52;9.40;;;1.77;;
48578;SDS011;34357;51.948;6.132;2022-10-16T09:43:22;5.13;;;2.03;;
48578;SDS011;34357;51.948;6.132;2022-10-16T09:46:38;10.95;;;2.17;;
48578;SDS011;34357;51.948;6.132;2022-10-16T09:48:50;8.98;;;2.15;;
48578;SDS011;34357;51.948;6.132;2022-10-16T09:51:29;12.70;;;2.00;;
48578;SDS011;34357;51.948;6.132;2022-10-16T09:53:57;6.85;;;1.38;;
48578;SDS011;34357;51.948;6.132;2022-10-16T09:56:33;12.43;;;2.15;;
48578;SDS011;34357;51.948;6.132;2022-10-16T10:01:48;9.77;;;2.08;;
48578;SDS011;34357;51.948;6.132;2022-10-16T10:04:16;5.40;;;1.60;;
48578;SDS011;34357;51.948;6.132;2022-10-16T10:11:44;11.32;;;2.00;;
48578;SDS011;34357;51.948;6.132;2022-10-16T10:14:23;11.35;;;2.00;;
48578;SDS011;34357;51.948;6.132;2022-10-16T10:17:07;6.10;;;1.70;;
48578;SDS011;34357;51.948;6.132;2022-10-16T10:19:47;10.60;;;1.92;;
48578;SDS011;34357;51.948;6.132;2022-10-16T10:22:19;13.98;;;2.38;;
48578;SDS011;34357;51.948;6.132;2022-10-16T10:33:37;14.75;;;2.05;;
48578;SDS011;34357;51.948;6.132;2022-10-16T10:38:57;13.27;;;2.17;;
48578;SDS011;34357;51.948;6.132;2022-10-16T10:50:19;15.85;;;2.15;;
48578;SDS011;34357;51.948;6.132;2022-10-16T11:01:24;12.57;;;2.25;;
48578;SDS011;34357;51.948;6.132;2022-10-16T11:06:50;12.38;;;2.17;;
48578;SDS011;34357;51.948;6.132;2022-10-16T11:09:27;15.88;;;2.78;;
48578;SDS011;34357;51.948;6.132;2022-10-16T11:12:01;10.57;;;2.00;;
48578;SDS011;34357;51.948;6.132;2022-10-16T11:14:34;12.50;;;1.63;;
48578;SDS011;34357;51.948;6.132;2022-10-16T11:17:02;14.05;;;1.70;;
48578;SDS011;34357;51.948;6.132;2022-10-16T11:19:35;12.00;;;1.80;;
48578;SDS011;34357;51.948;6.132;2022-10-16T11:25:02;12.07;;;2.15;;
48578;SDS011;34357;51.948;6.132;2022-10-16T11:33:00;10.48;;;1.85;;
48578;SDS011;34357;51.948;6.132;2022-10-16T11:38:25;15.20;;;2.10;;
48578;SDS011;34357;51.948;6.132;2022-10-16T11:40:57;15.20;;;2.53;;
48578;SDS011;34357;51.948;6.132;2022-10-16T11:43:29;13.07;;;2.05;;
48578;SDS011;34357;51.948;6.132;2022-10-16T11:46:04;12.23;;;1.98;;
48578;SDS011;34357;51.948;6.132;2022-10-16T11:48:46;10.25;;;1.80;;
48578;SDS011;34357;51.948;6.132;2022-10-16T11:54:16;10.25;;;1.50;;
48578;SDS011;34357;51.948;6.132;2022-10-16T11:57:12;10.18;;;2.05;;
48578;SDS011;34357;51.948;6.132;2022-10-16T12:00:28;12.70;;;2.28;;
48578;SDS011;34357;51.948;6.132;2022-10-16T12:02:56;12.02;;;2.10;;
48578;SDS011;34357;51.948;6.132;2022-10-16T12:08:15;10.32;;;1.85;;
48578;SDS011;34357;51.948;6.132;2022-10-16T12:10:45;13.98;;;2.20;;
48578;SDS011;34357;51.948;6.132;2022-10-16T12:18:36;14.02;;;2.30;;
48578;SDS011;34357;51.948;6.132;2022-10-16T12:21:03;15.32;;;2.92;;
48578;SDS011;34357;51.948;6.132;2022-10-16T12:23:31;11.50;;;1.95;;
48578;SDS011;34357;51.948;6.132;2022-10-16T12:29:17;12.88;;;2.13;;
48578;SDS011;34357;51.948;6.132;2022-10-16T12:31:48;12.27;;;2.35;;
48578;SDS011;34357;51.948;6.132;2022-10-16T12:34:20;9.68;;;2.00;;
48578;SDS011;34357;51.948;6.132;2022-10-16T12:37:07;20.20;;;2.45;;
48578;SDS011;34357;51.948;6.132;2022-10-16T12:39:39;11.95;;;2.30;;
48578;SDS011;34357;51.948;6.132;2022-10-16T12:42:19;11.52;;;2.08;;
48578;SDS011;34357;51.948;6.132;2022-10-16T12:44:45;10.40;;;1.80;;
48578;SDS011;34357;51.948;6.132;2022-10-16T12:49:59;13.00;;;2.03;;
48578;SDS011;34357;51.948;6.132;2022-10-16T12:52:35;10.15;;;1.90;;
48578;SDS011;34357;51.948;6.132;2022-10-16T12:55:04;11.18;;;2.10;;
48578;SDS011;34357;51.948;6.132;2022-10-16T12:57:34;13.75;;;2.25;;
48578;SDS011;34357;51.948;6.132;2022-10-16T13:05:27;13.18;;;2.45;;
48578;SDS011;34357;51.948;6.132;2022-10-16T13:24:15;12.50;;;2.58;;
48578;SDS011;34357;51.948;6.132;2022-10-16T13:26:53;15.45;;;2.45;;
48578;SDS011;34357;51.948;6.132;2022-10-16T13:29:32;13.43;;;2.20;;
48578;SDS011;34357;51.948;6.132;2022-10-16T13:32:07;15.20;;;2.50;;
48578;SDS011;34357;51.948;6.132;2022-10-16T13:34:47;11.35;;;1.90;;
48578;SDS011;34357;51.948;6.132;2022-10-16T13:37:21;8.50;;;1.80;;
48578;SDS011;34357;51.948;6.132;2022-10-16T13:39:48;9.02;;;1.90;;
48578;SDS011;34357;51.948;6.132;2022-10-16T13:42:25;12.80;;;1.88;;
48578;SDS011;34357;51.948;6.132;2022-10-16T13:44:53;11.23;;;1.98;;
48578;SDS011;34357;51.948;6.132;2022-10-16T13:47:21;10.45;;;1.60;;
48578;SDS011;34357;51.948;6.132;2022-10-16T13:50:02;9.43;;;2.00;;
48578;SDS011;34357;51.948;6.132;2022-10-16T13:54:56;17.85;;;1.90;;
48578;SDS011;34357;51.948;6.132;2022-10-16T13:57:23;14.10;;;2.03;;
48578;SDS011;34357;51.948;6.132;2022-10-16T13:59:49;9.10;;;1.90;;
48578;SDS011;34357;51.948;6.132;2022-10-16T14:02:20;8.32;;;1.85;;
48578;SDS011;34357;51.948;6.132;2022-10-16T14:05:00;12.18;;;2.38;;
48578;SDS011;34357;51.948;6.132;2022-10-16T14:07:28;9.80;;;1.70;;
48578;SDS011;34357;51.948;6.132;2022-10-16T14:09:56;11.93;;;1.98;;
48578;SDS011;34357;51.948;6.132;2022-10-16T14:12:27;10.63;;;2.08;;
48578;SDS011;34357;51.948;6.132;2022-10-16T14:14:53;9.82;;;1.77;;
48578;SDS011;34357;51.948;6.132;2022-10-16T14:17:30;10.02;;;2.08;;
48578;SDS011;34357;51.948;6.132;2022-10-16T14:20:00;11.18;;;2.33;;
48578;SDS011;34357;51.948;6.132;2022-10-16T14:22:36;13.25;;;2.45;;
48578;SDS011;34357;51.948;6.132;2022-10-16T14:27:43;10.93;;;1.80;;
48578;SDS011;34357;51.948;6.132;2022-10-16T14:32:59;12.38;;;2.40;;
48578;SDS011;34357;51.948;6.132;2022-10-16T14:35:29;10.18;;;2.03;;
48578;SDS011;34357;51.948;6.132;2022-10-16T14:38:00;21.00;;;3.30;;
48578;SDS011;34357;51.948;6.132;2022-10-16T14:40:28;10.32;;;1.95;;
48578;SDS011;34357;51.948;6.132;2022-10-16T14:42:56;19.38;;;2.20;;
48578;SDS011;34357;51.948;6.132;2022-10-16T14:45:24;14.80;;;2.55;;
48578;SDS011;34357;51.948;6.132;2022-10-16T14:47:54;11.98;;;1.98;;
48578;SDS011;34357;51.948;6.132;2022-10-16T14:50:24;13.57;;;2.28;;
48578;SDS011;34357;51.948;6.132;2022-10-16T14:52:50;12.98;;;2.38;;
48578;SDS011;34357;51.948;6.132;2022-10-16T14:55:16;10.63;;;2.00;;
48578;SDS011;34357;51.948;6.132;2022-10-16T14:57:43;10.82;;;2.33;;
48578;SDS011;34357;51.948;6.132;2022-10-16T15:00:13;14.52;;;2.08;;
48578;SDS011;34357;51.948;6.132;2022-10-16T15:02:44;11.32;;;1.88;;
48578;SDS011;34357;51.948;6.132;2022-10-16T15:05:21;14.57;;;2.60;;
48578;SDS011;34357;51.948;6.132;2022-10-16T15:07:49;10.27;;;2.67;;
48578;SDS011;34357;51.948;6.132;2022-10-16T15:10:16;12.15;;;2.70;;
48578;SDS011;34357;51.948;6.132;2022-10-16T15:12:43;12.10;;;3.45;;
48578;SDS011;34357;51.948;6.132;2022-10-16T15:15:54;16.52;;;2.80;;
48578;SDS011;34357;51.948;6.132;2022-10-16T15:17:55;10.18;;;1.92;;
48578;SDS011;34357;51.948;6.132;2022-10-16T15:20:25;11.40;;;2.60;;
48578;SDS011;34357;51.948;6.132;2022-10-16T15:22:55;12.55;;;2.30;;
48578;SDS011;34357;51.948;6.132;2022-10-16T15:28:06;10.10;;;2.30;;
48578;SDS011;34357;51.948;6.132;2022-10-16T15:30:33;9.48;;;2.83;;
48578;SDS011;34357;51.948;6.132;2022-10-16T15:33:00;12.02;;;2.45;;
48578;SDS011;34357;51.948;6.132;2022-10-16T15:35:27;17.85;;;2.58;;
48578;SDS011;34357;51.948;6.132;2022-10-16T15:37:52;10.68;;;2.20;;
48578;SDS011;34357;51.948;6.132;2022-10-16T15:40:18;10.20;;;2.60;;
48578;SDS011;34357;51.948;6.132;2022-10-16T15:42:46;11.05;;;2.38;;
48578;SDS011;34357;51.948;6.132;2022-10-16T15:45:12;10.07;;;2.35;;
48578;SDS011;34357;51.948;6.132;2022-10-16T15:47:38;8.80;;;2.15;;
48578;SDS011;34357;51.948;6.132;2022-10-16T15:50:06;10.35;;;1.60;;
48578;SDS011;34357;51.948;6.132;2022-10-16T15:52:32;7.57;;;1.83;;
48578;SDS011;34357;51.948;6.132;2022-10-16T15:54:58;7.72;;;1.80;;
48578;SDS011;34357;51.948;6.132;2022-10-16T15:57:24;9.52;;;1.98;;
48578;SDS011;34357;51.948;6.132;2022-10-16T15:59:50;6.82;;;2.05;;
48578;SDS011;34357;51.948;6.132;2022-10-16T16:02:16;11.52;;;2.28;;
48578;SDS011;34357;51.948;6.132;2022-10-16T16:04:42;10.70;;;2.20;;
48578;SDS011;34357;51.948;6.132;2022-10-16T16:07:07;9.43;;;2.45;;
48578;SDS011;34357;51.948;6.132;2022-10-16T16:09:33;10.73;;;2.47;;
48578;SDS011;34357;51.948;6.132;2022-10-16T16:11:59;10.02;;;2.00;;
48578;SDS011;34357;51.948;6.132;2022-10-16T16:14:26;10.05;;;2.22;;
48578;SDS011;34357;51.948;6.132;2022-10-16T16:16:56;6.20;;;1.70;;
48578;SDS011;34357;51.948;6.132;2022-10-16T16:19:23;8.57;;;3.15;;
48578;SDS011;34357;51.948;6.132;2022-10-16T16:21:49;12.07;;;2.88;;
48578;SDS011;34357;51.948;6.132;2022-10-16T16:24:15;14.40;;;2.72;;
48578;SDS011;34357;51.948;6.132;2022-10-16T16:26:41;14.82;;;3.38;;
48578;SDS011;34357;51.948;6.132;2022-10-16T16:29:12;17.63;;;3.35;;
48578;SDS011;34357;51.948;6.132;2022-10-16T16:31:39;6.43;;;2.67;;
48578;SDS011;34357;51.948;6.132;2022-10-16T16:34:05;7.47;;;3.25;;
48578;SDS011;34357;51.948;6.132;2022-10-16T16:36:31;11.77;;;3.10;;
48578;SDS011;34357;51.948;6.132;2022-10-16T16:38:57;10.23;;;2.85;;
48578;SDS011;34357;51.948;6.132;2022-10-16T16:41:24;14.10;;;4.35;;
48578;SDS011;34357;51.948;6.132;2022-10-16T16:43:52;15.20;;;4.40;;
48578;SDS011;34357;51.948;6.132;2022-10-16T16:46:19;20.73;;;9.27;;
48578;SDS011;34357;51.948;6.132;2022-10-16T16:48:45;19.52;;;8.23;;
48578;SDS011;34357;51.948;6.132;2022-10-16T16:51:13;17.33;;;5.40;;
48578;SDS011;34357;51.948;6.132;2022-10-16T16:53:41;12.88;;;5.70;;
48578;SDS011;34357;51.948;6.132;2022-10-16T16:56:08;13.23;;;5.18;;
48578;SDS011;34357;51.948;6.132;2022-10-16T16:58:34;18.42;;;5.75;;
48578;SDS011;34357;51.948;6.132;2022-10-16T17:01:01;15.27;;;5.35;;